Aérodrome :







RETROUVEZ-NOUS SUR...

 
LOGIN :

S'inscrire | Disclaimer

   EN    FR    IT 

 









Légende :    VFR   VFR Marginal   IFR   IFR Intensif   IFR Très Intensif
Visi : 
Plafond : 
>= 8 km
>= 3000ft
5 à 8 km
1000 à 3000 ft
1500m à 5 km
500 à 1000 ft
800 à 1500m
200 à 500 ft
< 800m
< 200 ft
Symboles :   Orages  Brouillard  Fortes neiges  Fortes précipitations  Vent > 20 kt






- Altitude de l'aérodrome : 333 ft


KWVL - Waterville Robert Lafleur

DERNIER METAR :
  • 020207Z AUTO 19008G15KT 160V230 10SM FEW024 10/06 A2960 RMK AO2

METARs EXPIRÉS :
  • 020156Z AUTO 19008G16KT 130V220 10SM BKN024 BKN033 11/07 A2960 RMK AO2 SLP050 T01060067
  • 020056Z AUTO 18007G17KT 150V210 10SM FEW028 11/08 A2958 RMK AO2 SLP043 T01060078
  • 012356Z AUTO VRB06G15KT 10SM CLR 11/09 A2956 RMK AO2 SLP037 60001 T01110094 10144 20111 53010

TAF N/A
FIR KZBW / Amérique du Nord



MET'MAP, la Météo Aéronautique d'un coup d'oeil ! - Copyright ORBIFLY Décembre 2007 - Disclaimer

ORBIFLY MET'MAP TEAM :

Programmation & Développement : Alexandra Zaïnal
Sur une idée originale de : Baudouin d'Aumeries
Assistance à la programmation : Marc-Olivier Méhu
Soutien technique & logistique : Manuel Goepfert

Contact : metmap@orbifly.com




SOURCES & CREDITS :

   NOAA